CST,Max TemperatureF,Mean TemperatureF,Min TemperatureF,Max Dew PointF,MeanDew PointF,Min DewpointF,Max Humidity, Mean Humidity, Min Humidity, Max Sea Level PressureIn, Mean Sea Level PressureIn, Min Sea Level PressureIn, Max VisibilityMiles, Mean VisibilityMiles, Min VisibilityMiles, Max Wind SpeedMPH, Mean Wind SpeedMPH, Max Gust SpeedMPH,PrecipitationIn, CloudCover, Events, WindDirDegrees
2014-2-1,21,11,0,16,7,-6,92,78,72,30.24,30.03,29.91,10,8,2,18,9,25,0.00,5,Snow,285
2014-2-2,15,4,-7,5,-4,-15,79,73,58,30.31,30.25,30.19,10,10,9,15,8,,0.00,1,,232
2014-2-3,19,10,1,12,4,-4,86,76,68,30.31,30.22,30.17,10,10,10,15,11,,0.00,2,,120
2014-2-4,14,8,3,7,1,-8,85,74,61,30.38,30.35,30.31,10,9,2,24,13,34,0.00,6,Snow,16
2014-2-5,5,-2,-9,-4,-8,-17,78,68,56,30.54,30.48,30.37,10,7,1,24,18,34,0.00,5,Rain-Snow,331
2014-2-6,5,-3,-11,-4,-11,-18,77,68,61,30.52,30.41,30.30,10,10,10,20,12,21,0.00,2,,270
2014-2-7,15,3,-9,3,-7,-17,78,69,57,30.30,30.21,30.14,10,10,10,17,11,22,0.00,1,,215
2014-2-8,15,9,3,9,5,-4,85,80,67,30.17,30.08,30.02,10,8,0,13,8,,0.00,5,Snow,199
2014-2-9,5,-2,-9,1,-10,-17,85,71,56,30.41,30.29,30.18,10,10,9,17,11,23,0.00,2,Snow,320
2014-2-10,1,-8,-16,-8,-15,-24,77,70,61,30.48,30.44,30.39,10,10,10,12,7,,0.00,0,,317
2014-2-11,15,0,-16,9,-5,-24,85,72,62,30.45,30.26,30.05,10,10,3,26,12,32,0.00,3,,177
2014-2-12,21,18,14,19,14,7,93,86,68,30.09,30.00,29.80,10,6,0,25,13,28,0.00,6,Snow,191
2014-2-13,37,22,8,30,15,1,93,78,63,29.78,29.66,29.55,10,9,5,29,19,44,0.00,2,,274
2014-2-14,12,6,0,5,1,-6,85,76,67,30.06,29.92,29.69,10,8,1,21,13,26,0.00,4,Snow,332
2014-2-15,30,15,0,27,12,-6,93,84,73,30.03,29.88,29.71,10,7,0,29,12,39,0.00,5,Fog-Snow,182
2014-2-16,21,16,12,18,12,7,93,80,68,30.20,30.08,29.91,10,9,2,25,13,34,0.00,5,Snow,90
2014-2-17,37,29,21,30,24,18,93,85,70,29.92,29.79,29.72,10,6,0,31,21,40,0.00,3,Fog-Snow,227
2014-2-18,42,35,28,32,28,21,93,77,56,29.83,29.67,29.56,10,10,9,20,12,23,0.01,1,,252
2014-2-19,48,37,26,36,30,25,100,81,54,29.88,29.80,29.65,10,10,8,21,11,26,0.00,0,,209
2014-2-20,35,27,19,34,30,16,100,93,81,29.64,29.51,29.33,10,4,0,39,13,51,0.28,8,Rain-Snow,13
2014-2-21,26,19,12,16,10,5,86,74,59,29.86,29.70,29.51,10,9,2,26,19,34,0.00,1,Snow,284
2014-2-22,21,16,10,10,6,3,79,70,58,30.17,30.02,29.86,10,10,10,12,8,,0.00,2,,304
2014-2-23,19,10,1,10,4,-4,79,72,58,30.32,30.28,30.18,10,10,10,16,9,16,0.00,0,,296
2014-2-24,12,8,3,7,2,-2,85,74,62,30.38,30.32,30.26,10,8,2,13,8,18,0.00,3,Snow,339
2014-2-25,8,2,-5,3,-5,-11,85,72,61,30.41,30.35,30.29,10,9,2,21,13,28,0.00,2,Snow,314
2014-2-26,21,6,-9,12,-3,-15,79,71,56,30.39,30.03,29.74,10,9,1,32,14,44,0.00,1,Snow,267
2014-2-27,3,-3,-9,-8,-17,-22,65,56,46,30.19,30.09,29.97,10,10,8,26,13,34,0.00,0,,19
2014-2-28,21,8,-5,16,3,-18,93,71,55,30.14,29.93,29.80,10,8,1,24,15,32,0.00,5,Snow,191